sensor_id;sensor_type;location;lat;lon;timestamp;P1;durP1;ratioP1;P2;durP2;ratioP2
4430;SDS011;2228;48.140;11.488;2023-07-29T00:02:20;8.40;;;4.60;;
4430;SDS011;2228;48.140;11.488;2023-07-29T00:04:48;6.73;;;4.50;;
4430;SDS011;2228;48.140;11.488;2023-07-29T00:07:15;8.40;;;4.70;;
4430;SDS011;2228;48.140;11.488;2023-07-29T00:09:43;6.57;;;3.92;;
4430;SDS011;2228;48.140;11.488;2023-07-29T00:12:10;8.63;;;4.30;;
4430;SDS011;2228;48.140;11.488;2023-07-29T00:14:37;9.63;;;4.35;;
4430;SDS011;2228;48.140;11.488;2023-07-29T00:17:04;5.45;;;4.28;;
4430;SDS011;2228;48.140;11.488;2023-07-29T00:19:31;5.43;;;4.23;;
4430;SDS011;2228;48.140;11.488;2023-07-29T00:21:58;7.28;;;4.07;;
4430;SDS011;2228;48.140;11.488;2023-07-29T00:24:26;11.27;;;4.75;;
4430;SDS011;2228;48.140;11.488;2023-07-29T00:26:54;6.00;;;4.18;;
4430;SDS011;2228;48.140;11.488;2023-07-29T00:29:22;8.20;;;5.35;;
4430;SDS011;2228;48.140;11.488;2023-07-29T00:31:53;7.90;;;5.10;;
4430;SDS011;2228;48.140;11.488;2023-07-29T00:34:24;12.63;;;8.30;;
4430;SDS011;2228;48.140;11.488;2023-07-29T00:36:52;27.33;;;11.45;;
4430;SDS011;2228;48.140;11.488;2023-07-29T00:39:19;21.27;;;8.93;;
4430;SDS011;2228;48.140;11.488;2023-07-29T00:41:50;8.65;;;5.20;;
4430;SDS011;2228;48.140;11.488;2023-07-29T00:44:24;5.87;;;4.03;;
4430;SDS011;2228;48.140;11.488;2023-07-29T00:47:43;10.55;;;6.70;;
4430;SDS011;2228;48.140;11.488;2023-07-29T10:55:22;2.40;;;2.00;;
4430;SDS011;2228;48.140;11.488;2023-07-29T10:58:07;3.10;;;2.15;;
4430;SDS011;2228;48.140;11.488;2023-07-29T11:00:38;2.20;;;2.00;;
4430;SDS011;2228;48.140;11.488;2023-07-29T11:03:07;4.90;;;2.53;;
4430;SDS011;2228;48.140;11.488;2023-07-29T11:08:21;2.22;;;1.80;;
4430;SDS011;2228;48.140;11.488;2023-07-29T11:11:00;4.60;;;1.70;;
4430;SDS011;2228;48.140;11.488;2023-07-29T11:13:28;2.70;;;2.00;;
4430;SDS011;2228;48.140;11.488;2023-07-29T11:15:56;2.65;;;1.65;;
4430;SDS011;2228;48.140;11.488;2023-07-29T11:18:26;2.03;;;1.40;;
4430;SDS011;2228;48.140;11.488;2023-07-29T11:20:54;1.67;;;1.40;;
4430;SDS011;2228;48.140;11.488;2023-07-29T11:23:27;2.50;;;1.40;;
4430;SDS011;2228;48.140;11.488;2023-07-29T11:25:55;2.67;;;1.70;;
4430;SDS011;2228;48.140;11.488;2023-07-29T11:28:24;5.35;;;1.80;;
4430;SDS011;2228;48.140;11.488;2023-07-29T11:30:52;2.30;;;1.83;;
4430;SDS011;2228;48.140;11.488;2023-07-29T11:33:20;2.60;;;2.00;;
4430;SDS011;2228;48.140;11.488;2023-07-29T11:35:48;2.63;;;1.90;;
4430;SDS011;2228;48.140;11.488;2023-07-29T11:38:16;3.30;;;1.60;;
4430;SDS011;2228;48.140;11.488;2023-07-29T11:40:43;2.60;;;2.10;;
4430;SDS011;2228;48.140;11.488;2023-07-29T11:43:19;2.47;;;1.63;;
4430;SDS011;2228;48.140;11.488;2023-07-29T11:45:48;5.07;;;2.67;;
4430;SDS011;2228;48.140;11.488;2023-07-29T11:48:14;2.47;;;2.00;;
4430;SDS011;2228;48.140;11.488;2023-07-29T11:50:41;1.80;;;1.50;;
4430;SDS011;2228;48.140;11.488;2023-07-29T11:53:09;2.70;;;1.70;;
4430;SDS011;2228;48.140;11.488;2023-07-29T11:55:37;2.05;;;1.73;;
4430;SDS011;2228;48.140;11.488;2023-07-29T11:58:05;1.88;;;1.60;;
4430;SDS011;2228;48.140;11.488;2023-07-29T12:00:32;3.20;;;1.80;;
4430;SDS011;2228;48.140;11.488;2023-07-29T12:03:04;2.55;;;1.50;;
4430;SDS011;2228;48.140;11.488;2023-07-29T12:05:33;2.47;;;2.20;;
4430;SDS011;2228;48.140;11.488;2023-07-29T12:08:00;1.65;;;1.55;;
4430;SDS011;2228;48.140;11.488;2023-07-29T12:10:28;2.60;;;1.90;;
4430;SDS011;2228;48.140;11.488;2023-07-29T12:12:55;2.55;;;1.90;;
4430;SDS011;2228;48.140;11.488;2023-07-29T12:15:23;3.40;;;1.80;;
4430;SDS011;2228;48.140;11.488;2023-07-29T12:17:52;1.90;;;1.70;;
4430;SDS011;2228;48.140;11.488;2023-07-29T12:20:23;3.95;;;1.63;;
4430;SDS011;2228;48.140;11.488;2023-07-29T12:22:53;2.20;;;1.70;;
4430;SDS011;2228;48.140;11.488;2023-07-29T12:25:21;2.10;;;1.70;;
4430;SDS011;2228;48.140;11.488;2023-07-29T12:27:49;2.15;;;1.90;;
4430;SDS011;2228;48.140;11.488;2023-07-29T12:30:16;2.70;;;1.48;;
4430;SDS011;2228;48.140;11.488;2023-07-29T12:32:47;2.08;;;1.70;;
4430;SDS011;2228;48.140;11.488;2023-07-29T12:35:13;3.90;;;2.00;;
4430;SDS011;2228;48.140;11.488;2023-07-29T12:37:42;1.90;;;1.70;;
4430;SDS011;2228;48.140;11.488;2023-07-29T12:40:20;2.22;;;1.85;;
4430;SDS011;2228;48.140;11.488;2023-07-29T12:42:50;3.15;;;2.30;;
4430;SDS011;2228;48.140;11.488;2023-07-29T12:45:17;8.10;;;3.97;;
4430;SDS011;2228;48.140;11.488;2023-07-29T12:47:47;4.60;;;2.50;;
4430;SDS011;2228;48.140;11.488;2023-07-29T12:50:14;5.18;;;3.10;;
4430;SDS011;2228;48.140;11.488;2023-07-29T12:52:42;4.60;;;3.30;;
4430;SDS011;2228;48.140;11.488;2023-07-29T12:55:09;3.33;;;2.60;;
4430;SDS011;2228;48.140;11.488;2023-07-29T12:57:39;4.63;;;2.60;;
4430;SDS011;2228;48.140;11.488;2023-07-29T13:00:08;3.40;;;2.63;;
4430;SDS011;2228;48.140;11.488;2023-07-29T13:02:36;3.17;;;2.30;;
4430;SDS011;2228;48.140;11.488;2023-07-29T13:05:08;5.32;;;2.90;;
4430;SDS011;2228;48.140;11.488;2023-07-29T13:07:37;7.57;;;3.75;;
4430;SDS011;2228;48.140;11.488;2023-07-29T13:10:05;8.38;;;3.95;;
4430;SDS011;2228;48.140;11.488;2023-07-29T13:12:33;8.27;;;4.13;;
4430;SDS011;2228;48.140;11.488;2023-07-29T13:15:00;6.72;;;4.18;;
4430;SDS011;2228;48.140;11.488;2023-07-29T13:17:27;8.75;;;5.20;;
4430;SDS011;2228;48.140;11.488;2023-07-29T13:19:54;9.23;;;5.00;;
4430;SDS011;2228;48.140;11.488;2023-07-29T13:22:21;7.20;;;5.27;;
4430;SDS011;2228;48.140;11.488;2023-07-29T13:24:48;6.80;;;4.15;;
4430;SDS011;2228;48.140;11.488;2023-07-29T13:27:16;5.82;;;4.60;;
4430;SDS011;2228;48.140;11.488;2023-07-29T13:29:43;7.75;;;5.00;;
4430;SDS011;2228;48.140;11.488;2023-07-29T13:32:11;8.23;;;4.82;;
4430;SDS011;2228;48.140;11.488;2023-07-29T13:34:38;8.82;;;4.57;;
4430;SDS011;2228;48.140;11.488;2023-07-29T13:37:05;6.05;;;4.90;;
4430;SDS011;2228;48.140;11.488;2023-07-29T13:39:32;7.40;;;4.80;;
4430;SDS011;2228;48.140;11.488;2023-07-29T13:41:59;7.10;;;4.80;;
4430;SDS011;2228;48.140;11.488;2023-07-29T13:44:39;5.68;;;4.40;;
4430;SDS011;2228;48.140;11.488;2023-07-29T13:47:07;7.28;;;4.30;;
4430;SDS011;2228;48.140;11.488;2023-07-29T13:49:34;5.43;;;3.50;;
4430;SDS011;2228;48.140;11.488;2023-07-29T13:52:01;4.27;;;3.37;;
4430;SDS011;2228;48.140;11.488;2023-07-29T13:54:30;6.28;;;3.40;;
4430;SDS011;2228;48.140;11.488;2023-07-29T13:56:57;5.28;;;3.60;;
4430;SDS011;2228;48.140;11.488;2023-07-29T13:59:24;4.63;;;3.50;;
4430;SDS011;2228;48.140;11.488;2023-07-29T14:01:53;4.10;;;3.13;;
4430;SDS011;2228;48.140;11.488;2023-07-29T14:04:20;4.50;;;3.70;;
4430;SDS011;2228;48.140;11.488;2023-07-29T14:06:46;4.53;;;3.80;;
4430;SDS011;2228;48.140;11.488;2023-07-29T14:09:13;5.13;;;3.50;;
4430;SDS011;2228;48.140;11.488;2023-07-29T14:11:40;6.25;;;3.40;;
4430;SDS011;2228;48.140;11.488;2023-07-29T14:14:16;5.50;;;3.90;;
4430;SDS011;2228;48.140;11.488;2023-07-29T14:17:03;4.47;;;3.40;;
4430;SDS011;2228;48.140;11.488;2023-07-29T14:19:30;5.35;;;3.42;;
4430;SDS011;2228;48.140;11.488;2023-07-29T14:21:58;4.32;;;3.40;;
4430;SDS011;2228;48.140;11.488;2023-07-29T14:24:25;4.88;;;3.75;;
4430;SDS011;2228;48.140;11.488;2023-07-29T14:26:51;5.05;;;3.65;;
4430;SDS011;2228;48.140;11.488;2023-07-29T14:29:18;4.90;;;3.67;;
4430;SDS011;2228;48.140;11.488;2023-07-29T14:31:45;4.90;;;3.30;;
4430;SDS011;2228;48.140;11.488;2023-07-29T14:34:14;5.15;;;3.90;;
4430;SDS011;2228;48.140;11.488;2023-07-29T14:36:40;5.90;;;3.80;;
4430;SDS011;2228;48.140;11.488;2023-07-29T14:39:07;6.53;;;3.65;;
4430;SDS011;2228;48.140;11.488;2023-07-29T14:41:36;7.45;;;4.30;;
4430;SDS011;2228;48.140;11.488;2023-07-29T14:44:03;6.05;;;4.00;;
4430;SDS011;2228;48.140;11.488;2023-07-29T14:46:30;8.93;;;3.60;;
4430;SDS011;2228;48.140;11.488;2023-07-29T14:48:58;6.57;;;3.95;;
4430;SDS011;2228;48.140;11.488;2023-07-29T14:51:26;6.75;;;4.00;;
4430;SDS011;2228;48.140;11.488;2023-07-29T14:53:53;8.18;;;3.70;;
4430;SDS011;2228;48.140;11.488;2023-07-29T14:56:20;4.60;;;3.55;;
4430;SDS011;2228;48.140;11.488;2023-07-29T14:58:47;6.90;;;3.83;;
4430;SDS011;2228;48.140;11.488;2023-07-29T15:01:15;5.82;;;4.07;;
4430;SDS011;2228;48.140;11.488;2023-07-29T15:03:45;6.18;;;3.47;;
4430;SDS011;2228;48.140;11.488;2023-07-29T15:06:12;5.28;;;3.28;;
4430;SDS011;2228;48.140;11.488;2023-07-29T15:08:40;5.50;;;3.30;;
4430;SDS011;2228;48.140;11.488;2023-07-29T15:11:07;7.80;;;3.75;;
4430;SDS011;2228;48.140;11.488;2023-07-29T15:13:34;5.07;;;3.33;;
4430;SDS011;2228;48.140;11.488;2023-07-29T15:16:01;5.32;;;3.70;;
4430;SDS011;2228;48.140;11.488;2023-07-29T15:18:28;5.72;;;4.05;;
4430;SDS011;2228;48.140;11.488;2023-07-29T15:20:55;5.90;;;3.85;;
4430;SDS011;2228;48.140;11.488;2023-07-29T15:23:22;5.82;;;3.78;;
4430;SDS011;2228;48.140;11.488;2023-07-29T15:25:51;6.53;;;4.22;;
4430;SDS011;2228;48.140;11.488;2023-07-29T15:28:18;4.63;;;3.30;;
4430;SDS011;2228;48.140;11.488;2023-07-29T15:30:44;5.83;;;3.40;;
4430;SDS011;2228;48.140;11.488;2023-07-29T15:33:13;5.75;;;3.90;;
4430;SDS011;2228;48.140;11.488;2023-07-29T15:35:41;8.20;;;4.43;;
4430;SDS011;2228;48.140;11.488;2023-07-29T15:38:08;7.15;;;4.00;;
4430;SDS011;2228;48.140;11.488;2023-07-29T15:40:35;3.58;;;3.17;;
4430;SDS011;2228;48.140;11.488;2023-07-29T15:43:05;6.70;;;3.40;;
4430;SDS011;2228;48.140;11.488;2023-07-29T15:45:32;4.53;;;3.40;;
4430;SDS011;2228;48.140;11.488;2023-07-29T15:47:59;5.25;;;3.60;;
4430;SDS011;2228;48.140;11.488;2023-07-29T15:50:26;5.47;;;3.97;;
4430;SDS011;2228;48.140;11.488;2023-07-29T15:52:53;4.53;;;3.50;;
4430;SDS011;2228;48.140;11.488;2023-07-29T15:55:20;6.55;;;3.55;;
4430;SDS011;2228;48.140;11.488;2023-07-29T15:57:47;4.10;;;3.42;;
4430;SDS011;2228;48.140;11.488;2023-07-29T16:00:17;6.57;;;3.90;;
